Time;durP1;ratioP1;P1;durP2;ratioP2;P2;SDS_P1;SDS_P2;PMS_P1;PMS_P2;Temp;Humidity;BMP_temperature;BMP_pressure;BME280_temperature;BME280_humidity;BME280_pressure;Samples;Min_cycle;Max_cycle;Signal;HPM_P1;HPM_P2
2022/03/30 00:00:24;;;;;;;73.95;39.83;;;;;;;4.03;63.98;99347.41;2067371;84;29704;-66
2022/03/30 00:03:27;;;;;;;74.75;40.38;;;;;;;4.01;63.99;99354.08;2099515;84;27715;-66
2022/03/30 00:06:29;;;;;;;73.37;42.80;;;;;;;3.95;64.14;99346.38;2099857;84;29890;-66
2022/03/30 00:09:32;;;;;;;80.45;43.58;;;;;;;3.89;64.25;99343.48;2050109;84;32513;-66
2022/03/30 00:12:34;;;;;;;72.50;42.95;;;;;;;3.83;64.34;99353.00;1999486;87;34159;-67
2022/03/30 00:15:36;;;;;;;79.30;42.17;;;;;;;3.80;64.42;99358.41;2031713;87;29782;-67
2022/03/30 00:18:38;;;;;;;76.37;43.05;;;;;;;3.76;64.63;99356.34;2032509;87;28342;-66
2022/03/30 00:21:40;;;;;;;80.80;43.15;;;;;;;3.70;64.47;99347.76;2032367;87;28665;-67
2022/03/30 00:24:45;;;;;;;73.35;42.85;;;;;;;3.66;64.67;99357.58;2018447;87;31115;-66
2022/03/30 00:27:47;;;;;;;85.97;46.18;;;;;;;3.57;64.56;99353.48;2030461;87;33690;-66
2022/03/30 00:30:49;;;;;;;78.57;42.67;;;;;;;3.52;64.64;99349.27;2029826;87;30835;-66
2022/03/30 00:33:52;;;;;;;78.10;42.65;;;;;;;3.48;64.69;99356.47;2028607;87;27635;-66
2022/03/30 00:36:54;;;;;;;79.12;44.75;;;;;;;3.45;64.62;99352.60;2040735;86;28129;-66
2022/03/30 00:39:55;;;;;;;77.32;43.28;;;;;;;3.40;64.65;99349.25;2018593;88;31083;-66
2022/03/30 00:42:57;;;;;;;76.10;42.73;;;;;;;3.36;64.60;99359.09;2029547;87;33437;-67
2022/03/30 00:45:59;;;;;;;81.32;43.83;;;;;;;3.31;64.67;99347.82;2029615;87;30860;-66
2022/03/30 00:49:04;;;;;;;80.47;42.55;;;;;;;3.28;64.79;99347.92;2029448;87;27719;-66
2022/03/30 00:52:06;;;;;;;84.95;43.80;;;;;;;3.23;64.84;99341.91;2051457;86;28663;-66
2022/03/30 00:55:10;;;;;;;78.25;42.48;;;;;;;3.18;64.96;99345.58;1999715;88;32251;-67
2022/03/30 00:58:12;;;;;;;77.45;43.40;;;;;;;3.15;64.93;99343.51;2019292;87;32976;-66
2022/03/30 01:01:14;;;;;;;73.97;41.65;;;;;;;3.10;64.98;99346.77;2031710;86;29658;-67
2022/03/30 01:04:16;;;;;;;84.70;45.78;;;;;;;3.05;64.99;99342.95;2031179;87;27593;-66
2022/03/30 01:07:18;;;;;;;87.02;44.73;;;;;;;2.99;65.06;99338.74;2032476;87;28496;-67
2022/03/30 01:10:20;;;;;;;83.97;45.03;;;;;;;2.93;65.08;99340.27;2035161;87;31892;-67
2022/03/30 01:13:22;;;;;;;91.25;46.77;;;;;;;2.87;65.10;99328.11;2073715;85;34363;-67
2022/03/30 01:16:24;;;;;;;85.67;45.60;;;;;;;2.79;65.32;99330.17;2074031;85;29961;-67
2022/03/30 01:19:31;;;;;;;88.37;46.00;;;;;;;2.72;65.49;99329.51;2074114;85;27640;-67
2022/03/30 01:22:33;;;;;;;85.87;46.73;;;;;;;2.63;65.41;99322.33;2073658;85;28748;-67
2022/03/30 01:25:35;;;;;;;81.85;44.55;;;;;;;2.55;65.47;99329.20;2073589;85;31879;-67
2022/03/30 01:28:37;;;;;;;82.47;45.52;;;;;;;2.47;65.48;99318.88;2073204;85;32945;-67
2022/03/30 01:35:02;;;;;;;77.12;41.63;;;;;;;2.29;65.65;99316.34;2074195;84;27794;-67
2022/03/30 01:38:04;;;;;;;88.62;47.43;;;;;;;2.25;65.67;99312.94;2073889;85;29517;-67
2022/03/30 01:41:07;;;;;;;78.45;42.23;;;;;;;2.22;66.00;99314.83;2073838;85;31162;-67
2022/03/30 01:44:09;;;;;;;85.30;44.73;;;;;;;2.18;65.83;99310.54;2073849;85;33121;-67
2022/03/30 01:47:12;;;;;;;83.50;45.60;;;;;;;2.13;65.91;99304.94;2073956;85;29687;-67
2022/03/30 01:50:14;;;;;;;76.17;44.40;;;;;;;2.09;65.84;99303.29;2074030;85;27674;-66
2022/03/30 01:53:17;;;;;;;86.97;44.88;;;;;;;2.05;66.06;99301.68;2073930;85;29685;-66
2022/03/30 01:56:20;;;;;;;85.15;44.38;;;;;;;2.01;66.03;99297.39;2073853;85;31933;-66
2022/03/30 01:59:23;;;;;;;83.30;44.93;;;;;;;1.96;66.08;99296.22;2072735;85;33673;-66
2022/03/30 02:02:26;;;;;;;86.95;43.52;;;;;;;1.90;66.07;99296.40;2072863;85;29695;-66
2022/03/30 02:05:28;;;;;;;86.63;45.52;;;;;;;1.85;66.02;99296.98;2073600;85;27679;-66
2022/03/30 02:08:31;;;;;;;87.45;45.50;;;;;;;1.80;65.93;99301.56;2073761;84;29156;-66
2022/03/30 02:11:33;;;;;;;83.03;44.90;;;;;;;1.75;66.09;99298.18;2073659;85;31186;-67
2022/03/30 02:14:35;;;;;;;84.45;45.58;;;;;;;1.69;66.13;99290.43;2073509;85;34296;-67
2022/03/30 02:17:39;;;;;;;90.47;44.63;;;;;;;1.64;66.16;99293.22;2049473;86;30851;-67
2022/03/30 02:20:42;;;;;;;81.32;45.85;;;;;;;1.60;66.22;99294.20;2058176;85;27614;-66
2022/03/30 02:23:45;;;;;;;80.20;43.42;;;;;;;1.54;66.41;99292.61;2100368;84;29110;-67
2022/03/30 02:26:48;;;;;;;81.20;44.10;;;;;;;1.49;66.50;99295.39;2100212;84;32208;-66
2022/03/30 02:29:52;;;;;;;80.30;42.35;;;;;;;1.47;66.63;99291.08;2065552;86;32995;-66
2022/03/30 02:32:54;;;;;;;62.70;33.45;;;;;;;1.43;66.65;99291.59;2084220;83;30454;-67
2022/03/30 02:35:56;;;;;;;77.27;39.88;;;;;;;1.40;66.91;99289.08;2136198;83;27751;-66
2022/03/30 02:38:58;;;;;;;77.27;39.88;;;;;;;1.39;66.90;99283.82;2100649;83;29243;-67
2022/03/30 02:42:00;;;;;;;68.80;39.08;;;;;;;1.38;66.94;99279.45;2099793;84;31403;-67
2022/03/30 02:45:05;;;;;;;72.15;39.50;;;;;;;1.39;66.99;99270.63;2100140;84;34138;-66
2022/03/30 02:48:21;;;;;;;71.57;38.95;;;;;;;1.43;66.88;99281.52;2069554;84;29705;-66
2022/03/30 02:51:25;;;;;;;74.45;40.88;;;;;;;1.41;66.88;99274.94;2100108;84;27703;-66
2022/03/30 02:54:27;;;;;;;79.65;43.28;;;;;;;1.42;66.81;99276.67;2059750;84;28431;-66
2022/03/30 02:57:29;;;;;;;83.03;44.48;;;;;;;1.41;66.73;99278.05;2072451;85;31782;-67
2022/03/30 03:00:32;;;;;;;79.03;41.65;;;;;;;1.38;66.84;99279.45;2099549;84;33387;-65
2022/03/30 03:03:34;;;;;;;81.20;42.38;;;;;;;1.33;66.74;99279.11;2099863;84;30916;-66
2022/03/30 03:06:36;;;;;;;74.17;40.98;;;;;;;1.28;66.63;99272.25;2063200;84;27699;-66
2022/03/30 03:09:38;;;;;;;79.25;42.00;;;;;;;1.25;66.50;99277.59;2061968;84;30109;-65
2022/03/30 03:12:40;;;;;;;80.65;39.03;;;;;;;1.20;66.59;99274.66;2055870;85;30890;-65
2022/03/30 03:15:41;;;;;;;80.40;41.60;;;;;;;1.15;66.60;99276.55;2056544;85;33860;-67
2022/03/30 03:18:44;;;;;;;85.40;44.77;;;;;;;1.12;66.68;99277.95;2056226;85;30944;-67
2022/03/30 03:21:45;;;;;;;81.75;43.38;;;;;;;1.12;66.87;99281.91;2052733;85;27688;-65
2022/03/30 03:24:47;;;;;;;91.85;47.55;;;;;;;1.10;66.80;99274.95;2052084;86;29783;-65
2022/03/30 03:27:49;;;;;;;89.47;47.55;;;;;;;1.09;66.84;99273.22;2016504;88;32271;-65
2022/03/30 03:30:51;;;;;;;98.37;49.53;;;;;;;1.05;66.82;99271.98;2052534;86;33974;-67
2022/03/30 03:33:53;;;;;;;93.25;47.38;;;;;;;1.03;66.90;99272.47;2053397;86;29998;-71
2022/03/30 03:36:55;;;;;;;85.12;45.90;;;;;;;1.01;66.91;99266.38;2053577;86;27628;-70
2022/03/30 03:39:56;;;;;;;99.03;49.90;;;;;;;0.97;66.78;99260.80;2053539;86;29481;-70
2022/03/30 03:43:00;;;;;;;94.17;48.98;;;;;;;0.93;66.68;99263.09;2053548;86;32045;-70
2022/03/30 03:46:02;;;;;;;93.95;47.15;;;;;;;0.88;66.68;99263.22;2053164;86;33865;-71
2022/03/30 03:49:03;;;;;;;94.20;47.40;;;;;;;0.84;66.72;99262.00;2053380;85;30165;-70
2022/03/30 03:52:07;;;;;;;92.40;48.95;;;;;;;0.79;66.66;99268.72;2043012;85;27810;-70
2022/03/30 03:55:11;;;;;;;95.87;48.05;;;;;;;0.74;66.81;99264.89;2022711;86;28677;-66
2022/03/30 03:58:13;;;;;;;88.65;49.35;;;;;;;0.72;67.01;99256.63;2022227;86;31041;-67
2022/03/30 04:01:15;;;;;;;92.47;46.50;;;;;;;0.69;67.06;99258.02;2019121;88;33803;-68
2022/03/30 04:04:18;;;;;;;87.97;46.92;;;;;;;0.65;67.03;99253.72;2018085;88;30825;-69
2022/03/30 04:07:20;;;;;;;92.02;47.40;;;;;;;0.63;67.00;99251.58;2030015;87;27763;-70
2022/03/30 04:10:22;;;;;;;86.92;45.23;;;;;;;0.58;67.08;99251.70;2030077;87;29387;-69
2022/03/30 04:13:25;;;;;;;98.30;45.90;;;;;;;0.55;67.25;99253.09;2032089;87;31631;-69
2022/03/30 04:16:27;;;;;;;86.00;45.52;;;;;;;0.51;67.23;99250.11;2032094;87;32971;-69
2022/03/30 04:19:30;;;;;;;86.92;47.15;;;;;;;0.47;67.25;99257.23;2050588;86;30073;-69
2022/03/30 04:22:32;;;;;;;84.65;45.48;;;;;;;0.44;67.23;99263.47;2022967;86;27771;-67
2022/03/30 04:25:34;;;;;;;82.17;46.33;;;;;;;0.40;67.29;99261.80;2037731;86;29938;-68
2022/03/30 04:28:40;;;;;;;90.05;45.63;;;;;;;0.38;67.40;99262.75;2055202;85;32362;-70
2022/03/30 04:31:39;;;;;;;83.52;44.75;;;;;;;0.36;67.48;99257.97;2055772;86;32977;-70
2022/03/30 04:34:42;;;;;;;85.47;45.63;;;;;;;0.33;67.71;99266.83;2055727;86;30860;-69
2022/03/30 04:37:43;;;;;;;90.35;47.10;;;;;;;0.32;67.57;99269.48;2055851;86;27711;-69
2022/03/30 04:40:45;;;;;;;89.95;46.88;;;;;;;0.29;67.84;99266.48;2054789;86;30033;-69
2022/03/30 04:43:47;;;;;;;97.60;50.03;;;;;;;0.32;68.01;99265.09;2023544;88;30879;-69
2022/03/30 04:46:49;;;;;;;95.32;47.93;;;;;;;0.33;68.01;99264.19;2031202;87;34183;-71
2022/03/30 04:49:52;;;;;;;108.00;53.68;;;;;;;0.36;67.98;99257.50;2031858;87;30079;-68
2022/03/30 04:52:54;;;;;;;121.37;53.60;;;;;;;0.41;68.13;99260.05;2032105;87;27667;-71
2022/03/30 04:55:56;;;;;;;149.80;63.73;;;;;;;0.47;68.05;99255.08;2032020;87;29585;-71
2022/03/30 04:58:58;;;;;;;210.50;80.70;;;;;;;0.53;68.10;99258.41;2031240;87;32250;-68
2022/03/30 05:02:00;;;;;;;300.07;102.53;;;;;;;0.60;68.09;99259.97;2031761;87;34527;-68
2022/03/30 05:05:03;;;;;;;501.93;166.37;;;;;;;0.69;68.14;99261.50;2031963;87;30579;-67
2022/03/30 05:08:06;;;;;;;306.23;108.10;;;;;;;0.80;68.24;99263.02;2032313;87;27676;-71
2022/03/30 05:11:08;;;;;;;345.90;123.67;;;;;;;0.90;68.25;99266.69;1999658;88;28684;-70
2022/03/30 05:14:10;;;;;;;451.65;150.05;;;;;;;1.03;68.32;99271.63;2007323;87;31580;-69
2022/03/30 05:17:12;;;;;;;365.80;125.25;;;;;;;1.16;68.37;99267.73;2032423;87;33406;-69
2022/03/30 05:20:16;;;;;;;283.95;99.95;;;;;;;1.31;68.44;99265.56;2032382;87;30780;-70
2022/03/30 05:23:19;;;;;;;214.35;86.42;;;;;;;1.48;68.47;99275.66;2032470;87;36825;-69
2022/03/30 05:26:21;;;;;;;207.90;85.95;;;;;;;1.64;68.65;99277.37;2031478;87;28647;-70
2022/03/30 05:29:24;;;;;;;185.90;78.87;;;;;;;1.81;68.75;99276.41;2032006;87;32373;-69
2022/03/30 05:32:26;;;;;;;175.78;76.62;;;;;;;2.00;68.78;99268.37;2032246;87;32985;-69
2022/03/30 05:35:28;;;;;;;193.28;80.17;;;;;;;2.18;68.79;99270.43;2031930;87;30857;-67
2022/03/30 05:38:30;;;;;;;196.45;81.75;;;;;;;2.37;68.79;99272.05;2031531;87;27733;-68
2022/03/30 05:41:33;;;;;;;180.35;77.87;;;;;;;2.58;68.89;99270.47;2015503;87;29581;-68
2022/03/30 05:44:35;;;;;;;164.20;72.30;;;;;;;2.81;68.88;99269.27;2003311;87;32423;-70
2022/03/30 05:47:37;;;;;;;147.20;65.92;;;;;;;3.02;68.75;99263.23;2032672;87;33336;-70
2022/03/30 05:50:40;;;;;;;140.00;66.67;;;;;;;3.24;68.75;99271.71;2032175;87;30074;-69
2022/03/30 05:53:42;;;;;;;127.72;63.13;;;;;;;3.46;68.61;99271.81;2032278;86;27689;-69
2022/03/30 05:57:02;;;;;;;117.10;60.58;;;;;;;3.68;68.54;99263.52;2031949;87;29921;-70
2022/03/30 06:00:07;;;;;;;105.95;54.80;;;;;;;3.92;68.42;99269.17;2032010;87;32302;-69
2022/03/30 06:03:10;;;;;;;110.23;55.53;;;;;;;4.18;68.17;99269.07;1999450;89;34215;-71
2022/03/30 06:06:12;;;;;;;102.72;56.77;;;;;;;4.39;68.01;99260.25;2020153;87;30885;-67
2022/03/30 06:09:14;;;;;;;97.97;53.28;;;;;;;4.61;67.85;99266.00;2032009;87;27646;-66
2022/03/30 06:12:16;;;;;;;108.60;57.70;;;;;;;4.85;67.71;99267.20;2030482;87;29662;-67
2022/03/30 06:15:19;;;;;;;94.67;54.67;;;;;;;5.07;67.52;99263.15;1997786;89;31227;-71
2022/03/30 06:18:22;;;;;;;92.02;50.03;;;;;;;5.34;67.40;99276.16;2023095;87;32877;-70
2022/03/30 06:21:24;;;;;;;87.27;48.70;;;;;;;5.63;67.29;99276.63;2031940;87;30495;-67
2022/03/30 06:24:26;;;;;;;83.37;48.38;;;;;;;5.93;66.95;99265.48;2032116;87;27686;-70
2022/03/30 06:27:28;;;;;;;87.00;49.30;;;;;;;6.25;66.74;99266.25;2031270;87;29412;-68
2022/03/30 06:30:30;;;;;;;88.47;51.28;;;;;;;6.53;66.26;99258.62;2031736;86;32400;-68
2022/03/30 06:33:32;;;;;;;91.22;51.58;;;;;;;6.78;65.96;99258.74;2031858;87;34051;-72
2022/03/30 06:36:37;;;;;;;82.80;50.92;;;;;;;7.02;65.59;99259.73;2031888;87;30855;-66
2022/03/30 06:39:39;;;;;;;90.83;53.60;;;;;;;7.25;65.36;99259.86;2056014;86;27647;-68
2022/03/30 06:42:41;;;;;;;84.80;50.90;;;;;;;7.55;64.91;99254.31;1989811;88;29097;-69
2022/03/30 06:45:46;;;;;;;97.50;51.70;;;;;;;7.84;64.67;99258.52;2016410;87;30516;-72
2022/03/30 06:48:48;;;;;;;;;;;;;;;8.20;64.22;99246.25;2033879;87;34875;-66
2022/03/30 06:51:52;;;;;;;84.42;48.28;;;;;;;8.61;63.78;99248.00;2032338;87;30004;-70
2022/03/30 06:54:54;;;;;;;83.72;48.85;;;;;;;8.94;63.49;99242.94;2030271;87;27658;-66
2022/03/30 06:57:56;;;;;;;81.05;46.75;;;;;;;9.27;63.15;99249.37;2032079;87;29714;-71
2022/03/30 07:00:59;;;;;;;77.22;44.50;;;;;;;9.68;62.58;99250.91;2021893;87;32234;-71
2022/03/30 07:04:02;;;;;;;75.80;43.83;;;;;;;10.01;61.85;99245.22;2001337;87;33677;-68
2022/03/30 07:10:27;;;;;;;64.72;41.53;;;;;;;10.52;60.75;99245.09;2030798;87;27718;-66
2022/03/30 07:13:29;;;;;;;67.82;38.65;;;;;;;10.94;60.02;99255.23;2022105;87;29604;-70
2022/03/30 07:16:31;;;;;;;62.93;39.53;;;;;;;11.35;59.86;99245.29;2006188;88;31588;-66
2022/03/30 07:19:33;;;;;;;65.32;39.75;;;;;;;11.62;58.61;99248.32;2001000;89;34135;-68
2022/03/30 07:22:35;;;;;;;69.32;41.05;;;;;;;11.78;57.98;99242.73;1998969;88;29651;-68
2022/03/30 07:25:37;;;;;;;69.40;41.00;;;;;;;11.97;57.74;99248.12;2032124;87;27706;-69
2022/03/30 07:28:39;;;;;;;67.60;40.15;;;;;;;12.26;56.36;99241.13;2058545;86;28770;-69
2022/03/30 07:31:43;;;;;;;62.62;39.20;;;;;;;12.60;56.57;99239.95;2062977;86;32295;-71
2022/03/30 07:34:49;;;;;;;66.03;37.97;;;;;;;13.10;56.07;99239.73;2061233;86;33914;-71
2022/03/30 07:37:50;;;;;;;61.92;38.53;;;;;;;13.50;54.94;99235.78;2060067;86;29705;-71
2022/03/30 07:40:54;;;;;;;58.98;37.45;;;;;;;13.85;54.39;99238.84;2067732;84;28140;-68
2022/03/30 07:43:56;;;;;;;59.77;38.10;;;;;;;14.10;53.71;99242.25;2097066;84;28865;-68
2022/03/30 07:46:59;;;;;;;49.88;29.50;;;;;;;14.36;53.02;99240.59;2064431;84;32194;-66
2022/03/30 07:50:01;;;;;;;50.55;32.88;;;;;;;14.48;51.05;99240.91;2057706;86;32999;-72
2022/03/30 07:53:04;;;;;;;55.98;30.82;;;;;;;14.37;51.22;99235.56;2049797;86;29652;-70
2022/03/30 07:56:05;;;;;;;40.80;25.57;;;;;;;14.29;50.81;99240.23;2049627;86;27761;-69
2022/03/30 07:59:07;;;;;;;34.23;20.35;;;;;;;14.21;49.94;99240.88;2021916;87;28569;-73
2022/03/30 08:02:10;;;;;;;40.25;20.17;;;;;;;14.21;48.62;99238.69;2057304;86;31937;-70
2022/03/30 08:05:13;;;;;;;34.23;19.23;;;;;;;14.17;48.45;99231.83;2039388;87;33774;-70
2022/03/30 08:08:15;;;;;;;39.45;21.33;;;;;;;14.09;46.12;99227.91;2003623;88;29658;-71
2022/03/30 08:11:17;;;;;;;40.45;22.22;;;;;;;14.25;48.25;99223.48;2009315;87;27768;-69
2022/03/30 08:14:19;;;;;;;36.70;20.65;;;;;;;14.57;46.99;99216.37;2073834;85;29863;-70
2022/03/30 08:17:24;;;;;;;35.08;20.20;;;;;;;14.59;46.47;99217.98;2073698;85;31079;-70
2022/03/30 08:23:47;;;;;;;36.93;19.65;;;;;;;14.59;45.77;99214.41;2073876;85;30092;-69
2022/03/30 08:26:50;;;;;;;33.92;20.17;;;;;;;14.58;45.92;99214.92;2074288;85;27652;-67
2022/03/30 08:29:53;;;;;;;31.85;20.17;;;;;;;14.71;45.54;99213.91;2074293;84;29173;-70
2022/03/30 08:32:55;;;;;;;39.25;19.65;;;;;;;14.91;45.46;99214.90;2067665;84;31850;-67
2022/03/30 08:35:58;;;;;;;42.95;19.27;;;;;;;15.11;44.91;99219.95;2100662;84;33351;-71
2022/03/30 08:39:10;;;;;;;36.58;22.00;;;;;;;15.24;44.64;99214.84;2056962;84;29761;-66
2022/03/30 08:42:09;;;;;;;36.42;19.48;;;;;;;15.21;44.54;99210.58;2084919;84;27755;-67
2022/03/30 08:45:11;;;;;;;41.77;22.42;;;;;;;15.14;44.55;99206.69;2098949;84;28878;-67
2022/03/30 08:48:13;;;;;;;35.45;21.55;;;;;;;15.16;43.32;99204.71;2097158;84;32253;-69
2022/03/30 08:51:16;;;;;;;35.28;20.72;;;;;;;15.16;43.32;99204.71;2096753;84;34195;-70
2022/03/30 08:54:19;;;;;;;35.65;21.02;;;;;;;15.09;44.09;99201.70;2099522;83;30600;-70
2022/03/30 08:57:21;;;;;;;31.95;22.05;;;;;;;15.07;43.40;99192.00;2099063;84;27746;-70
2022/03/30 09:00:25;;;;;;;36.73;21.45;;;;;;;14.86;43.16;99199.13;2097564;84;28097;-66
2022/03/30 09:03:27;;;;;;;38.45;23.02;;;;;;;14.74;43.40;99196.97;2100607;84;31035;-67
2022/03/30 09:06:39;;;;;;;32.88;20.92;;;;;;;14.79;43.61;99192.56;2096062;84;33886;-67
2022/03/30 09:09:41;;;;;;;38.40;21.50;;;;;;;14.74;43.19;99196.13;2098712;84;30791;-66
2022/03/30 09:12:46;;;;;;;34.88;20.45;;;;;;;14.57;42.98;99190.30;2103209;83;27676;-67
2022/03/30 09:15:50;;;;;;;;;;;;;;;14.48;43.09;99191.56;2139536;83;28815;-70
2022/03/30 09:19:05;;;;;;;35.85;19.25;;;;;;;14.27;42.31;99199.09;2103770;83;31068;-68
2022/03/30 09:22:10;;;;;;;33.15;18.55;;;;;;;14.04;42.61;99192.92;2100316;84;34164;-66
2022/03/30 09:25:13;;;;;;;36.45;19.20;;;;;;;13.93;42.81;99189.75;2077015;85;30446;-67
2022/03/30 09:28:23;;;;;;;29.87;17.75;;;;;;;13.82;42.58;99186.11;2077021;85;27732;-69
2022/03/30 09:31:28;;;;;;;31.73;17.90;;;;;;;13.75;42.21;99192.96;2076883;85;28640;-66
2022/03/30 09:34:33;;;;;;;32.13;18.77;;;;;;;13.61;42.40;99191.41;2076597;84;31611;-66
2022/03/30 09:37:35;;;;;;;37.60;19.23;;;;;;;13.42;42.24;99189.31;2076804;85;33026;-71
2022/03/30 09:40:55;;;;;;;29.25;18.02;;;;;;;13.26;42.58;99183.40;2077063;85;30937;-68
2022/03/30 09:44:08;;;;;;;31.80;17.87;;;;;;;13.26;42.91;99186.09;2076990;85;27720;-67
2022/03/30 09:47:06;;;;;;;29.55;16.57;;;;;;;13.24;42.63;99170.09;2063709;86;28655;-71
2022/03/30 09:50:09;;;;;;;34.25;16.48;;;;;;;13.36;42.69;99166.41;2088099;84;31643;-70
2022/03/30 09:53:14;;;;;;;32.17;17.70;;;;;;;13.47;42.97;99164.25;2077272;84;33194;-69
2022/03/30 09:56:19;;;;;;;29.98;17.00;;;;;;;13.57;42.15;99160.83;2096591;83;29642;-70
2022/03/30 09:59:22;;;;;;;26.80;16.62;;;;;;;13.55;42.04;99158.75;2100855;84;27718;-70
2022/03/30 10:02:27;;;;;;;36.90;15.32;;;;;;;13.63;42.47;99150.90;2093472;84;29910;-70
2022/03/30 10:05:29;;;;;;;21.62;13.25;;;;;;;13.74;41.97;99148.18;2094010;84;32940;-69
2022/03/30 10:08:33;;;;;;;28.40;14.73;;;;;;;13.81;41.77;99149.41;2075938;85;34153;-70
2022/03/30 10:11:35;;;;;;;28.02;15.50;;;;;;;13.98;42.57;99144.47;2049117;86;29061;-67
2022/03/30 10:14:37;;;;;;;27.20;14.55;;;;;;;14.22;42.00;99145.61;2056892;85;27769;-69
2022/03/30 10:17:40;;;;;;;26.10;15.78;;;;;;;14.30;41.48;99138.23;2055079;86;29974;-70
2022/03/30 10:20:42;;;;;;;23.67;14.83;;;;;;;14.39;40.37;99143.34;2057109;86;31080;-69
2022/03/30 10:24:21;;;;;;;27.80;14.23;;;;;;;14.37;40.93;99138.09;2060642;86;33899;-69
2022/03/30 10:27:37;;;;;;;24.15;12.45;;;;;;;14.42;41.16;99128.27;2027363;86;30833;-68
2022/03/30 10:30:43;;;;;;;27.58;11.88;;;;;;;14.62;41.04;99123.02;2026699;86;27659;-70
2022/03/30 10:33:44;;;;;;;20.30;12.07;;;;;;;14.71;40.46;99120.43;2031563;87;29485;-69
2022/03/30 10:37:00;;;;;;;25.15;11.03;;;;;;;14.72;40.19;99111.35;2029876;87;31230;-69
2022/03/30 10:40:22;;;;;;;21.50;10.45;;;;;;;14.70;39.91;99111.98;2054413;86;33047;-70
2022/03/30 10:43:26;;;;;;;22.80;12.98;;;;;;;14.65;38.76;99112.83;1928779;92;29809;-67
2022/03/30 10:46:37;;;;;;;24.60;13.85;;;;;;;14.58;39.48;99110.28;1954921;90;27679;-71
2022/03/30 10:49:56;;;;;;;23.83;14.10;;;;;;;14.58;39.61;99101.72;1954879;90;29497;-68
2022/03/30 10:52:59;;;;;;;25.95;13.95;;;;;;;14.58;39.35;99103.54;1956848;90;31107;-70
2022/03/30 10:56:13;;;;;;;26.37;13.30;;;;;;;14.52;38.93;99101.39;1926677;91;32829;-71
2022/03/30 10:59:15;;;;;;;24.85;13.95;;;;;;;14.45;38.96;99098.38;1946718;91;30767;-71
2022/03/30 11:02:17;;;;;;;30.77;14.50;;;;;;;14.42;38.97;99091.89;1947693;90;27796;-67
2022/03/30 11:05:28;;;;;;;24.02;12.88;;;;;;;14.54;39.00;99099.42;1938698;90;29028;-69
2022/03/30 11:08:38;;;;;;;22.95;12.10;;;;;;;14.72;38.99;99092.48;1929362;90;31058;-71
2022/03/30 11:11:43;;;;;;;20.80;11.83;;;;;;;14.93;39.15;99083.48;1961082;88;32994;-69
2022/03/30 11:15:01;;;;;;;20.80;12.20;;;;;;;15.31;39.52;99077.91;1922233;91;29694;-69
2022/03/30 11:18:18;;;;;;;21.55;12.25;;;;;;;15.58;37.78;99078.27;1942063;91;28118;-67
2022/03/30 11:21:20;;;;;;;27.00;13.55;;;;;;;15.72;37.80;99071.62;2020643;87;28860;-68
2022/03/30 11:24:25;;;;;;;23.80;13.72;;;;;;;15.80;38.08;99073.11;2028047;87;32298;-69
2022/03/30 11:27:27;;;;;;;25.15;12.58;;;;;;;15.99;37.82;99062.00;2051334;86;34265;-70
2022/03/30 11:30:34;;;;;;;21.45;12.63;;;;;;;16.09;37.44;99064.19;2053410;86;30846;-69
2022/03/30 11:33:36;;;;;;;22.55;13.83;;;;;;;16.16;37.08;99059.94;2030860;86;27796;-69
2022/03/30 11:36:39;;;;;;;21.90;12.07;;;;;;;16.27;37.03;99048.61;1997718;89;29092;-69
2022/03/30 11:39:41;;;;;;;25.15;12.10;;;;;;;16.27;37.00;99052.66;1977802;89;31534;-67
2022/03/30 11:42:49;;;;;;;22.95;11.93;;;;;;;16.29;36.82;99050.19;2027123;87;33834;-67
2022/03/30 11:45:53;;;;;;;21.70;13.40;;;;;;;16.23;36.39;99045.34;2004946;87;29791;-69
2022/03/30 11:49:02;;;;;;;24.35;13.20;;;;;;;16.15;36.42;99045.20;2005494;88;28265;-71
2022/03/30 11:52:18;;;;;;;22.00;12.60;;;;;;;16.13;36.40;99043.17;2007715;88;29963;-68
2022/03/30 11:55:20;;;;;;;20.30;12.43;;;;;;;16.10;36.40;99037.05;1975104;90;31143;-67
2022/03/30 11:58:34;;;;;;;24.90;13.40;;;;;;;16.10;36.40;99037.05;1997632;88;33759;-67
2022/03/30 12:01:37;;;;;;;21.30;12.80;;;;;;;16.20;36.04;99038.88;2006070;88;30613;-68
2022/03/30 12:04:39;;;;;;;24.35;14.13;;;;;;;16.19;35.62;99026.36;2007002;88;27705;-71
2022/03/30 12:07:41;;;;;;;20.17;12.37;;;;;;;16.19;35.62;99026.36;1982979;88;29941;-68
2022/03/30 12:10:44;;;;;;;23.62;12.63;;;;;;;16.16;35.53;99026.16;2006997;87;32435;-70
2022/03/30 12:13:52;;;;;;;23.57;13.38;;;;;;;16.07;34.85;99024.30;2029017;87;34210;-68
2022/03/30 12:16:56;;;;;;;33.00;15.68;;;;;;;16.00;35.35;99021.84;2041061;87;30448;-71
2022/03/30 12:19:58;;;;;;;22.13;14.28;;;;;;;15.89;35.16;99010.16;1983152;88;27685;-68
2022/03/30 12:23:07;;;;;;;22.82;12.93;;;;;;;15.94;35.24;99016.00;2065307;86;29544;-68
2022/03/30 12:26:14;;;;;;;18.85;12.25;;;;;;;15.99;35.19;99003.92;2049417;86;31054;-67
2022/03/30 12:29:16;;;;;;;28.38;12.98;;;;;;;15.99;35.19;99003.92;2073438;85;34260;-69
2022/03/30 12:32:23;;;;;;;19.10;11.70;;;;;;;16.03;35.13;99002.13;2099894;84;30281;-70
2022/03/30 12:35:33;;;;;;;33.95;21.82;;;;;;;15.89;35.30;98984.50;2098260;84;28112;-69
2022/03/30 12:38:35;;;;;;;21.00;13.25;;;;;;;15.95;35.20;98987.16;2076772;84;30496;-68
2022/03/30 12:41:37;;;;;;;23.38;12.37;;;;;;;15.94;35.05;98984.10;2099640;84;31450;-69
2022/03/30 12:44:43;;;;;;;22.25;13.60;;;;;;;15.86;34.99;98984.81;2100203;84;34199;-67
2022/03/30 12:47:51;;;;;;;29.52;15.83;;;;;;;15.82;35.31;98979.78;2099676;84;30630;-68
2022/03/30 12:50:53;;;;;;;22.48;12.93;;;;;;;15.72;34.93;98980.66;2081347;83;27698;-68
2022/03/30 12:53:55;;;;;;;32.90;13.72;;;;;;;15.67;35.11;98981.56;2086075;84;28698;-69
2022/03/30 12:56:57;;;;;;;26.45;13.90;;;;;;;15.73;35.42;98977.44;2087758;84;32202;-70
2022/03/30 13:00:16;;;;;;;24.45;13.93;;;;;;;15.73;35.42;98977.44;2056030;86;33064;-70
2022/03/30 13:03:25;;;;;;;23.75;14.53;;;;;;;15.73;35.17;98972.05;2060743;86;31049;-67
2022/03/30 13:06:28;;;;;;;25.35;15.53;;;;;;;15.68;34.85;98952.23;2080922;85;27814;-70
2022/03/30 13:09:30;;;;;;;24.12;15.32;;;;;;;15.69;35.04;98959.34;2086726;85;29908;-68
2022/03/30 13:12:44;;;;;;;26.27;15.00;;;;;;;15.68;35.05;98947.34;2067306;85;31272;-70
2022/03/30 13:15:46;;;;;;;28.07;14.68;;;;;;;15.70;34.78;98946.19;2057686;86;33894;-70
2022/03/30 13:19:11;;;;;;;27.85;15.58;;;;;;;15.58;34.99;98942.78;2076656;85;30767;-68
2022/03/30 13:22:14;;;;;;;25.82;17.37;;;;;;;15.49;35.06;98917.48;2063468;85;27853;-71
2022/03/30 13:25:36;;;;;;;29.70;19.95;;;;;;;15.50;34.89;98936.73;2064058;86;29326;-72
2022/03/30 13:28:38;;;;;;;33.48;18.98;;;;;;;15.39;35.02;98937.40;1960412;89;32047;-70
2022/03/30 13:31:43;;;;;;;29.45;15.35;;;;;;;15.19;35.03;98931.47;1977718;89;33197;-71
2022/03/30 13:34:44;;;;;;;25.43;14.83;;;;;;;15.00;34.90;98940.86;1976768;89;30675;-66
2022/03/30 13:37:47;;;;;;;23.00;15.35;;;;;;;14.85;35.50;98934.52;1968626;89;27860;-67
2022/03/30 13:40:50;;;;;;;34.75;18.67;;;;;;;14.71;35.34;98929.03;1986012;88;29910;-70
2022/03/30 13:43:53;;;;;;;25.25;14.18;;;;;;;14.44;35.41;98908.04;1995972;88;31745;-69
2022/03/30 13:46:54;;;;;;;27.90;13.35;;;;;;;14.43;35.45;98927.37;1990532;89;34003;-70
2022/03/30 13:49:56;;;;;;;28.60;13.60;;;;;;;14.28;35.20;98920.65;1999766;88;30522;-68
2022/03/30 13:53:03;;;;;;;28.50;12.95;;;;;;;14.13;35.61;98933.63;2001517;87;27760;-67
2022/03/30 13:56:05;;;;;;;27.17;14.40;;;;;;;14.04;35.68;98922.29;2022919;87;30005;-69
2022/03/30 13:59:07;;;;;;;;;;;;;;;13.88;35.83;98920.92;1962444;90;31517;-67
2022/03/30 14:02:10;;;;;;;28.20;14.35;;;;;;;13.81;36.20;98921.10;1983666;88;33810;-71
2022/03/30 14:05:12;;;;;;;24.30;13.40;;;;;;;13.69;36.43;98912.23;2080644;84;30497;-69
2022/03/30 14:08:14;;;;;;;24.40;13.15;;;;;;;13.64;36.87;98913.11;2098256;84;27704;-67
2022/03/30 14:11:18;;;;;;;25.97;14.68;;;;;;;13.59;37.04;98911.28;2057737;84;28650;-69
2022/03/30 14:14:20;;;;;;;36.87;17.47;;;;;;;13.52;36.81;98910.95;2063733;86;31109;-67
2022/03/30 14:17:23;;;;;;;27.80;15.60;;;;;;;13.31;37.17;98916.28;2079111;84;34243;-68
2022/03/30 14:20:26;;;;;;;36.00;16.37;;;;;;;13.13;37.95;98915.98;2095182;84;30842;-68